sim
Sign-in with your pilot id or email,
or register
Callsign
Passwort

Schedule Details

Flight Number: GEC8360
Departure: Frankfurt Airport (EDDF) at 14:50
Arrival: Mumbai Chhatrapati Shivaji International Airport (VABB) at 22:50
Route: Lufthansa Cargo Cargo Schedule. Enter filed route here before submitting Pirep.

Weather Information
Getting current METAR information for EDDF 092350Z 27005KT 240V310 9999 SCT023 06/02 Q1019 NOSIG
Getting current METAR information for VABB 092330Z 09006KT 2500 HZ NSC 26/20 Q1012 NOSIG

Schedule Frequency

Route Map